sensor_id;sensor_type;location;lat;lon;timestamp;pressure;altitude;pressure_sealevel;temperature;humidity
59650;BME280;46162;57.568;25.814;2022-09-09T00:01:26;101973.69;;;0.32;100.00
59650;BME280;46162;57.568;25.814;2022-09-09T00:04:05;101970.25;;;0.29;100.00
59650;BME280;46162;57.568;25.814;2022-09-09T00:06:45;101961.81;;;0.42;100.00
59650;BME280;46162;57.568;25.814;2022-09-09T00:09:16;101975.41;;;0.33;100.00
59650;BME280;46162;57.568;25.814;2022-09-09T00:11:48;101976.38;;;0.31;100.00
59650;BME280;46162;57.568;25.814;2022-09-09T00:14:24;101967.72;;;0.26;100.00
59650;BME280;46162;57.568;25.814;2022-09-09T00:16:58;101968.72;;;0.21;100.00
59650;BME280;46162;57.568;25.814;2022-09-09T00:19:34;101970.56;;;0.19;100.00
59650;BME280;46162;57.568;25.814;2022-09-09T00:22:15;101973.59;;;0.09;100.00
59650;BME280;46162;57.568;25.814;2022-09-09T00:24:46;101975.88;;;-0.06;100.00
59650;BME280;46162;57.568;25.814;2022-09-09T00:27:23;101978.03;;;-0.17;100.00
59650;BME280;46162;57.568;25.814;2022-09-09T00:30:00;101977.25;;;-0.20;100.00
59650;BME280;46162;57.568;25.814;2022-09-09T00:32:30;101977.53;;;-0.30;100.00
59650;BME280;46162;57.568;25.814;2022-09-09T00:35:04;101968.97;;;-0.38;100.00
59650;BME280;46162;57.568;25.814;2022-09-09T00:37:43;101970.06;;;-0.44;100.00
59650;BME280;46162;57.568;25.814;2022-09-09T00:40:21;101961.00;;;-0.38;100.00
59650;BME280;46162;57.568;25.814;2022-09-09T00:42:54;101960.13;;;-0.37;100.00
59650;BME280;46162;57.568;25.814;2022-09-09T00:45:50;101966.28;;;-0.36;100.00
59650;BME280;46162;57.568;25.814;2022-09-09T00:48:22;101958.19;;;-0.32;100.00
59650;BME280;46162;57.568;25.814;2022-09-09T00:51:00;101960.13;;;-0.37;100.00
59650;BME280;46162;57.568;25.814;2022-09-09T00:53:38;101964.50;;;-0.36;100.00
59650;BME280;46162;57.568;25.814;2022-09-09T00:56:12;101957.75;;;-0.46;100.00
59650;BME280;46162;57.568;25.814;2022-09-09T00:58:43;101954.81;;;-0.37;100.00
59650;BME280;46162;57.568;25.814;2022-09-09T01:01:18;101959.47;;;-0.45;100.00
59650;BME280;46162;57.568;25.814;2022-09-09T01:03:51;101958.63;;;-0.46;100.00
59650;BME280;46162;57.568;25.814;2022-09-09T01:06:29;101959.41;;;-0.42;100.00
59650;BME280;46162;57.568;25.814;2022-09-09T01:09:08;101967.66;;;-0.51;100.00
59650;BME280;46162;57.568;25.814;2022-09-09T01:11:55;101965.00;;;-0.51;100.00
59650;BME280;46162;57.568;25.814;2022-09-09T01:14:38;101964.28;;;-0.56;100.00
59650;BME280;46162;57.568;25.814;2022-09-09T01:17:15;101972.47;;;-0.64;100.00
59650;BME280;46162;57.568;25.814;2022-09-09T01:20:01;101965.50;;;-0.67;100.00
59650;BME280;46162;57.568;25.814;2022-09-09T01:22:45;101966.63;;;-0.75;100.00
59650;BME280;46162;57.568;25.814;2022-09-09T01:28:26;101960.09;;;-0.63;100.00
59650;BME280;46162;57.568;25.814;2022-09-09T01:31:02;101965.91;;;-0.52;100.00
59650;BME280;46162;57.568;25.814;2022-09-09T01:33:38;101964.06;;;-0.50;100.00
59650;BME280;46162;57.568;25.814;2022-09-09T01:36:12;101963.88;;;-0.44;100.00
59650;BME280;46162;57.568;25.814;2022-09-09T01:38:47;101964.78;;;-0.45;100.00
59650;BME280;46162;57.568;25.814;2022-09-09T01:41:17;101966.47;;;-0.43;100.00
59650;BME280;46162;57.568;25.814;2022-09-09T01:44:20;101963.56;;;-0.35;100.00
59650;BME280;46162;57.568;25.814;2022-09-09T01:46:49;101967.16;;;-0.36;100.00
59650;BME280;46162;57.568;25.814;2022-09-09T01:49:20;101962.09;;;-0.44;100.00
59650;BME280;46162;57.568;25.814;2022-09-09T01:51:51;101963.00;;;-0.45;100.00
59650;BME280;46162;57.568;25.814;2022-09-09T01:54:31;101951.78;;;-0.26;100.00
59650;BME280;46162;57.568;25.814;2022-09-09T01:57:10;101962.09;;;-0.44;100.00
59650;BME280;46162;57.568;25.814;2022-09-09T01:59:52;101953.66;;;-0.56;100.00
59650;BME280;46162;57.568;25.814;2022-09-09T02:02:27;101963.50;;;-0.60;100.00
59650;BME280;46162;57.568;25.814;2022-09-09T02:05:17;101960.81;;;-0.58;100.00
59650;BME280;46162;57.568;25.814;2022-09-09T02:07:49;101970.47;;;-0.57;100.00
59650;BME280;46162;57.568;25.814;2022-09-09T02:10:30;101965.19;;;-0.57;100.00
59650;BME280;46162;57.568;25.814;2022-09-09T02:13:14;101964.56;;;-0.66;100.00
59650;BME280;46162;57.568;25.814;2022-09-09T02:15:49;101967.19;;;-0.64;100.00
59650;BME280;46162;57.568;25.814;2022-09-09T02:18:24;101961.94;;;-0.67;100.00
59650;BME280;46162;57.568;25.814;2022-09-09T02:20:56;101957.72;;;-0.73;100.00
59650;BME280;46162;57.568;25.814;2022-09-09T02:23:26;101956.59;;;-0.66;100.00
59650;BME280;46162;57.568;25.814;2022-09-09T02:25:57;101957.53;;;-0.67;100.00
59650;BME280;46162;57.568;25.814;2022-09-09T02:28:29;101963.16;;;-0.23;100.00
59650;BME280;46162;57.568;25.814;2022-09-09T02:31:00;101951.44;;;-0.42;100.00
59650;BME280;46162;57.568;25.814;2022-09-09T02:33:39;101959.91;;;-0.31;100.00
59650;BME280;46162;57.568;25.814;2022-09-09T02:36:10;101958.06;;;-0.29;100.00
59650;BME280;46162;57.568;25.814;2022-09-09T02:38:45;101958.22;;;-0.33;100.00
59650;BME280;46162;57.568;25.814;2022-09-09T02:41:20;101960.59;;;-0.52;100.00
59650;BME280;46162;57.568;25.814;2022-09-09T02:43:53;101960.09;;;-0.63;100.00
59650;BME280;46162;57.568;25.814;2022-09-09T02:46:34;101953.97;;;-0.66;100.00
59650;BME280;46162;57.568;25.814;2022-09-09T02:49:09;101955.78;;;-0.68;100.00
59650;BME280;46162;57.568;25.814;2022-09-09T02:51:46;101949.03;;;-0.78;100.00
59650;BME280;46162;57.568;25.814;2022-09-09T02:54:24;101951.78;;;-0.81;100.00
59650;BME280;46162;57.568;25.814;2022-09-09T02:56:55;101949.78;;;-0.74;100.00
59650;BME280;46162;57.568;25.814;2022-09-09T02:59:34;101957.72;;;-0.73;100.00
59650;BME280;46162;57.568;25.814;2022-09-09T03:02:04;101956.84;;;-0.73;100.00
59650;BME280;46162;57.568;25.814;2022-09-09T03:04:34;101949.88;;;-0.76;100.00
59650;BME280;46162;57.568;25.814;2022-09-09T03:07:04;101959.53;;;-0.75;100.00
59650;BME280;46162;57.568;25.814;2022-09-09T03:09:34;101955.44;;;-0.85;100.00
59650;BME280;46162;57.568;25.814;2022-09-09T03:12:03;101959.09;;;-0.89;100.00
59650;BME280;46162;57.568;25.814;2022-09-09T03:14:33;101950.47;;;-0.96;100.00
59650;BME280;46162;57.568;25.814;2022-09-09T03:17:05;101955.00;;;-0.99;100.00
59650;BME280;46162;57.568;25.814;2022-09-09T03:19:43;101949.41;;;-1.18;100.00
59650;BME280;46162;57.568;25.814;2022-09-09T03:22:13;101959.06;;;-1.17;100.00
59650;BME280;46162;57.568;25.814;2022-09-09T03:24:43;101963.41;;;-1.15;100.00
59650;BME280;46162;57.568;25.814;2022-09-09T03:27:14;101957.94;;;-1.09;100.00
59650;BME280;46162;57.568;25.814;2022-09-09T03:29:43;101960.44;;;-1.04;100.00
59650;BME280;46162;57.568;25.814;2022-09-09T03:32:19;101963.84;;;-0.99;100.00
59650;BME280;46162;57.568;25.814;2022-09-09T03:34:49;101965.53;;;-0.96;100.00
59650;BME280;46162;57.568;25.814;2022-09-09T03:37:19;101954.81;;;-0.93;100.00
59650;BME280;46162;57.568;25.814;2022-09-09T03:39:50;101960.22;;;-0.96;100.00
59650;BME280;46162;57.568;25.814;2022-09-09T03:42:22;101959.16;;;-0.91;100.00
59650;BME280;46162;57.568;25.814;2022-09-09T03:44:54;101958.94;;;-0.83;100.00
59650;BME280;46162;57.568;25.814;2022-09-09T03:47:27;101963.28;;;-0.82;100.00
59650;BME280;46162;57.568;25.814;2022-09-09T03:50:04;101965.16;;;-0.84;100.00
59650;BME280;46162;57.568;25.814;2022-09-09T03:52:37;101965.06;;;-0.81;100.00
59650;BME280;46162;57.568;25.814;2022-09-09T03:55:17;101963.38;;;-0.83;100.00
59650;BME280;46162;57.568;25.814;2022-09-09T03:57:46;101965.38;;;-0.92;100.00
59650;BME280;46162;57.568;25.814;2022-09-09T04:00:15;101970.63;;;-0.90;100.00
59650;BME280;46162;57.568;25.814;2022-09-09T04:02:50;101980.03;;;-0.80;100.00
59650;BME280;46162;57.568;25.814;2022-09-09T04:05:21;101977.38;;;-0.80;100.00
59650;BME280;46162;57.568;25.814;2022-09-09T04:07:50;101974.56;;;-0.74;100.00
59650;BME280;46162;57.568;25.814;2022-09-09T04:10:20;101976.25;;;-0.71;100.00
59650;BME280;46162;57.568;25.814;2022-09-09T04:12:49;101983.84;;;-0.60;100.00
59650;BME280;46162;57.568;25.814;2022-09-09T04:15:18;101983.75;;;-0.57;100.00
59650;BME280;46162;57.568;25.814;2022-09-09T04:17:47;101982.84;;;-0.56;100.00
59650;BME280;46162;57.568;25.814;2022-09-09T04:20:18;101982.75;;;-0.53;100.00
59650;BME280;46162;57.568;25.814;2022-09-09T04:22:47;101984.41;;;-0.49;100.00
59650;BME280;46162;57.568;25.814;2022-09-09T04:25:16;101971.88;;;-0.46;100.00
59650;BME280;46162;57.568;25.814;2022-09-09T04:27:46;101977.88;;;-0.39;100.00
59650;BME280;46162;57.568;25.814;2022-09-09T04:30:15;101976.69;;;-0.30;100.00
59650;BME280;46162;57.568;25.814;2022-09-09T04:32:44;101984.50;;;-0.26;100.00
59650;BME280;46162;57.568;25.814;2022-09-09T04:35:14;101986.78;;;-0.15;100.00
59650;BME280;46162;57.568;25.814;2022-09-09T04:37:44;101978.97;;;0.07;100.00
59650;BME280;46162;57.568;25.814;2022-09-09T04:40:13;101972.59;;;0.13;100.00
59650;BME280;46162;57.568;25.814;2022-09-09T04:42:43;101980.06;;;0.27;100.00
59650;BME280;46162;57.568;25.814;2022-09-09T04:45:13;101976.06;;;0.40;100.00
59650;BME280;46162;57.568;25.814;2022-09-09T04:47:42;101983.81;;;0.46;100.00
59650;BME280;46162;57.568;25.814;2022-09-09T04:50:11;101981.69;;;0.56;100.00
59650;BME280;46162;57.568;25.814;2022-09-09T04:52:40;101978.38;;;0.74;100.00
59650;BME280;46162;57.568;25.814;2022-09-09T04:55:12;101987.81;;;0.81;100.00
59650;BME280;46162;57.568;25.814;2022-09-09T04:57:43;101985.22;;;1.03;100.00
59650;BME280;46162;57.568;25.814;2022-09-09T05:00:14;101979.56;;;1.13;100.00
59650;BME280;46162;57.568;25.814;2022-09-09T05:02:44;101985.50;;;1.19;100.00
59650;BME280;46162;57.568;25.814;2022-09-09T05:05:13;101987.75;;;1.30;100.00
59650;BME280;46162;57.568;25.814;2022-09-09T05:07:45;101991.16;;;1.34;100.00
59650;BME280;46162;57.568;25.814;2022-09-09T05:10:16;101991.44;;;1.48;100.00
59650;BME280;46162;57.568;25.814;2022-09-09T05:12:52;101989.56;;;1.52;100.00
59650;BME280;46162;57.568;25.814;2022-09-09T05:15:25;101992.44;;;1.67;100.00
59650;BME280;46162;57.568;25.814;2022-09-09T05:17:57;101988.78;;;1.92;100.00
59650;BME280;46162;57.568;25.814;2022-09-09T05:20:29;101992.28;;;1.92;100.00
59650;BME280;46162;57.568;25.814;2022-09-09T05:22:58;101989.91;;;2.07;100.00
59650;BME280;46162;57.568;25.814;2022-09-09T05:25:30;101985.53;;;2.26;100.00
59650;BME280;46162;57.568;25.814;2022-09-09T05:27:59;101992.84;;;2.42;100.00
59650;BME280;46162;57.568;25.814;2022-09-09T05:30:28;101994.97;;;2.54;100.00
59650;BME280;46162;57.568;25.814;2022-09-09T05:32:59;101993.09;;;2.76;100.00
59650;BME280;46162;57.568;25.814;2022-09-09T05:35:28;101995.44;;;3.03;100.00
59650;BME280;46162;57.568;25.814;2022-09-09T05:37:59;101985.41;;;3.27;100.00
59650;BME280;46162;57.568;25.814;2022-09-09T05:40:30;101993.47;;;3.26;100.00
59650;BME280;46162;57.568;25.814;2022-09-09T05:43:00;101998.22;;;3.38;100.00
59650;BME280;46162;57.568;25.814;2022-09-09T05:45:30;101994.19;;;3.48;100.00
59650;BME280;46162;57.568;25.814;2022-09-09T05:48:00;101998.75;;;3.82;100.00
59650;BME280;46162;57.568;25.814;2022-09-09T05:50:29;101998.06;;;3.96;100.00
59650;BME280;46162;57.568;25.814;2022-09-09T05:52:58;102004.19;;;3.98;100.00
59650;BME280;46162;57.568;25.814;2022-09-09T05:55:30;101995.94;;;4.20;100.00
59650;BME280;46162;57.568;25.814;2022-09-09T05:57:59;102003.41;;;4.31;100.00
59650;BME280;46162;57.568;25.814;2022-09-09T06:00:28;102004.03;;;4.36;100.00
59650;BME280;46162;57.568;25.814;2022-09-09T06:02:59;102001.19;;;4.57;100.00
59650;BME280;46162;57.568;25.814;2022-09-09T06:05:28;102002.59;;;4.64;100.00
59650;BME280;46162;57.568;25.814;2022-09-09T06:07:58;102000.50;;;4.86;100.00
59650;BME280;46162;57.568;25.814;2022-09-09T06:10:27;102008.88;;;4.96;100.00
59650;BME280;46162;57.568;25.814;2022-09-09T06:12:57;102002.59;;;4.97;100.00
59650;BME280;46162;57.568;25.814;2022-09-09T06:15:27;102003.84;;;5.23;100.00
59650;BME280;46162;57.568;25.814;2022-09-09T06:17:57;102009.53;;;5.33;100.00
59650;BME280;46162;57.568;25.814;2022-09-09T06:20:26;102011.16;;;5.51;100.00
59650;BME280;46162;57.568;25.814;2022-09-09T06:22:57;102004.25;;;5.63;100.00
59650;BME280;46162;57.568;25.814;2022-09-09T06:25:26;102010.66;;;5.60;100.00
59650;BME280;46162;57.568;25.814;2022-09-09T06:27:57;102006.16;;;5.77;100.00
59650;BME280;46162;57.568;25.814;2022-09-09T06:30:26;102013.25;;;5.94;100.00
59650;BME280;46162;57.568;25.814;2022-09-09T06:32:55;102012.75;;;6.17;100.00
59650;BME280;46162;57.568;25.814;2022-09-09T06:35:25;102009.53;;;6.27;100.00
59650;BME280;46162;57.568;25.814;2022-09-09T06:37:54;102009.47;;;6.42;100.00
59650;BME280;46162;57.568;25.814;2022-09-09T06:40:23;102012.81;;;6.32;100.00
59650;BME280;46162;57.568;25.814;2022-09-09T06:42:52;102013.03;;;6.57;100.00
59650;BME280;46162;57.568;25.814;2022-09-09T06:45:35;102015.16;;;6.66;100.00
59650;BME280;46162;57.568;25.814;2022-09-09T06:48:05;102007.69;;;6.72;100.00
59650;BME280;46162;57.568;25.814;2022-09-09T06:50:34;102001.00;;;6.93;100.00
59650;BME280;46162;57.568;25.814;2022-09-09T06:53:03;102004.19;;;7.00;100.00
59650;BME280;46162;57.568;25.814;2022-09-09T06:55:32;101996.78;;;7.18;100.00
59650;BME280;46162;57.568;25.814;2022-09-09T06:58:07;102000.56;;;7.42;100.00
59650;BME280;46162;57.568;25.814;2022-09-09T07:00:38;101989.53;;;7.47;100.00
59650;BME280;46162;57.568;25.814;2022-09-09T07:03:08;101991.84;;;7.66;100.00
59650;BME280;46162;57.568;25.814;2022-09-09T07:05:38;101999.31;;;7.75;100.00
59650;BME280;46162;57.568;25.814;2022-09-09T07:08:07;101999.34;;;7.88;100.00
59650;BME280;46162;57.568;25.814;2022-09-09T07:10:38;102003.47;;;7.93;100.00
59650;BME280;46162;57.568;25.814;2022-09-09T07:13:07;101996.06;;;7.97;100.00
59650;BME280;46162;57.568;25.814;2022-09-09T07:15:38;102001.00;;;8.03;100.00
59650;BME280;46162;57.568;25.814;2022-09-09T07:18:07;102005.69;;;8.14;100.00
59650;BME280;46162;57.568;25.814;2022-09-09T07:20:37;102005.13;;;8.09;100.00
59650;BME280;46162;57.568;25.814;2022-09-09T07:23:06;102007.63;;;8.25;100.00
59650;BME280;46162;57.568;25.814;2022-09-09T07:25:35;102003.84;;;8.42;100.00
59650;BME280;46162;57.568;25.814;2022-09-09T07:28:03;102000.97;;;8.30;100.00
59650;BME280;46162;57.568;25.814;2022-09-09T07:30:34;102002.41;;;8.36;100.00
59650;BME280;46162;57.568;25.814;2022-09-09T07:33:05;102008.44;;;8.39;100.00
59650;BME280;46162;57.568;25.814;2022-09-09T07:35:33;102004.38;;;8.72;100.00
59650;BME280;46162;57.568;25.814;2022-09-09T07:38:04;102000.84;;;8.72;100.00
59650;BME280;46162;57.568;25.814;2022-09-09T07:40:35;102005.59;;;8.68;100.00
59650;BME280;46162;57.568;25.814;2022-09-09T07:43:03;102002.53;;;8.60;100.00
59650;BME280;46162;57.568;25.814;2022-09-09T07:45:33;102012.91;;;8.66;100.00
59650;BME280;46162;57.568;25.814;2022-09-09T07:48:05;102011.19;;;8.78;100.00
59650;BME280;46162;57.568;25.814;2022-09-09T07:50:34;102003.94;;;8.91;100.00
59650;BME280;46162;57.568;25.814;2022-09-09T07:53:02;102017.31;;;8.80;100.00
59650;BME280;46162;57.568;25.814;2022-09-09T07:55:33;102018.38;;;9.03;100.00
59650;BME280;46162;57.568;25.814;2022-09-09T07:58:02;102013.41;;;9.10;100.00
59650;BME280;46162;57.568;25.814;2022-09-09T08:00:31;102007.16;;;9.09;100.00
59650;BME280;46162;57.568;25.814;2022-09-09T08:03:00;102015.88;;;9.00;100.00
59650;BME280;46162;57.568;25.814;2022-09-09T08:05:31;102016.56;;;9.03;100.00
59650;BME280;46162;57.568;25.814;2022-09-09T08:08:00;102016.03;;;8.98;100.00
59650;BME280;46162;57.568;25.814;2022-09-09T08:10:31;102018.38;;;9.03;100.00
59650;BME280;46162;57.568;25.814;2022-09-09T08:13:00;102021.38;;;9.11;100.00
59650;BME280;46162;57.568;25.814;2022-09-09T08:15:45;102010.28;;;9.16;100.00
59650;BME280;46162;57.568;25.814;2022-09-09T08:18:14;102015.34;;;9.20;100.00
59650;BME280;46162;57.568;25.814;2022-09-09T08:20:45;102015.22;;;9.35;100.00
59650;BME280;46162;57.568;25.814;2022-09-09T08:23:14;102023.09;;;9.25;100.00
59650;BME280;46162;57.568;25.814;2022-09-09T08:25:43;102019.06;;;9.43;100.00
59650;BME280;46162;57.568;25.814;2022-09-09T08:28:13;102012.59;;;9.46;100.00
59650;BME280;46162;57.568;25.814;2022-09-09T08:30:42;102010.31;;;9.53;100.00
59650;BME280;46162;57.568;25.814;2022-09-09T08:33:11;102018.63;;;9.50;100.00
59650;BME280;46162;57.568;25.814;2022-09-09T08:35:51;102017.03;;;9.47;100.00
59650;BME280;46162;57.568;25.814;2022-09-09T08:38:20;102015.88;;;9.62;100.00
59650;BME280;46162;57.568;25.814;2022-09-09T08:52:29;102006.59;;;10.15;100.00
59650;BME280;46162;57.568;25.814;2022-09-09T08:55:05;101994.53;;;10.07;100.00
59650;BME280;46162;57.568;25.814;2022-09-09T08:57:39;101993.44;;;10.10;100.00
59650;BME280;46162;57.568;25.814;2022-09-09T09:00:10;101999.56;;;10.12;100.00
59650;BME280;46162;57.568;25.814;2022-09-09T09:02:46;101995.94;;;10.24;100.00
59650;BME280;46162;57.568;25.814;2022-09-09T09:05:23;101986.34;;;10.20;100.00
59650;BME280;46162;57.568;25.814;2022-09-09T09:08:03;101988.63;;;10.38;100.00
59650;BME280;46162;57.568;25.814;2022-09-09T09:10:45;101992.25;;;10.25;100.00
59650;BME280;46162;57.568;25.814;2022-09-09T09:13:21;101989.13;;;10.43;100.00
59650;BME280;46162;57.568;25.814;2022-09-09T09:15:58;101988.03;;;10.45;100.00
59650;BME280;46162;57.568;25.814;2022-09-09T09:18:28;101997.88;;;10.46;100.00
59650;BME280;46162;57.568;25.814;2022-09-09T09:21:04;101995.94;;;10.60;100.00
59650;BME280;46162;57.568;25.814;2022-09-09T09:23:39;101990.13;;;10.53;100.00
59650;BME280;46162;57.568;25.814;2022-09-09T09:26:11;101994.97;;;10.72;100.00
59650;BME280;46162;57.568;25.814;2022-09-09T09:28:41;101988.22;;;10.77;100.00
59650;BME280;46162;57.568;25.814;2022-09-09T09:31:14;101981.34;;;11.07;100.00
59650;BME280;46162;57.568;25.814;2022-09-09T09:33:49;101977.53;;;11.21;100.00
59650;BME280;46162;57.568;25.814;2022-09-09T09:36:20;101971.63;;;11.38;100.00
59650;BME280;46162;57.568;25.814;2022-09-09T09:38:55;101971.72;;;11.37;100.00
59650;BME280;46162;57.568;25.814;2022-09-09T09:41:46;101961.84;;;11.58;100.00
59650;BME280;46162;57.568;25.814;2022-09-09T09:44:23;101965.78;;;11.66;100.00
59650;BME280;46162;57.568;25.814;2022-09-09T09:46:52;101970.28;;;11.76;100.00
59650;BME280;46162;57.568;25.814;2022-09-09T09:49:21;101964.88;;;11.76;100.00
59650;BME280;46162;57.568;25.814;2022-09-09T09:51:50;101961.41;;;11.86;100.00
59650;BME280;46162;57.568;25.814;2022-09-09T09:54:26;101961.66;;;11.82;100.00
59650;BME280;46162;57.568;25.814;2022-09-09T09:57:08;101959.97;;;11.70;100.00
59650;BME280;46162;57.568;25.814;2022-09-09T09:59:38;101955.84;;;11.55;100.00
59650;BME280;46162;57.568;25.814;2022-09-09T10:02:16;101945.97;;;11.65;100.00
59650;BME280;46162;57.568;25.814;2022-09-09T10:04:48;101948.88;;;11.84;100.00
59650;BME280;46162;57.568;25.814;2022-09-09T10:07:19;101949.84;;;11.95;100.00
59650;BME280;46162;57.568;25.814;2022-09-09T10:09:54;101951.94;;;11.80;100.00
59650;BME280;46162;57.568;25.814;2022-09-09T10:12:33;101947.50;;;11.79;100.00
59650;BME280;46162;57.568;25.814;2022-09-09T10:15:19;101951.34;;;11.88;100.00
59650;BME280;46162;57.568;25.814;2022-09-09T10:18:00;101949.44;;;11.99;100.00
59650;BME280;46162;57.568;25.814;2022-09-09T10:20:35;101943.69;;;11.93;100.00
59650;BME280;46162;57.568;25.814;2022-09-09T10:23:18;101939.84;;;11.95;100.00
59650;BME280;46162;57.568;25.814;2022-09-09T10:26:01;101940.91;;;12.04;100.00
59650;BME280;46162;57.568;25.814;2022-09-09T10:28:44;101929.50;;;12.00;100.00
59650;BME280;46162;57.568;25.814;2022-09-09T10:31:27;101926.75;;;11.79;100.00
59650;BME280;46162;57.568;25.814;2022-09-09T10:34:06;101931.03;;;11.82;100.00
59650;BME280;46162;57.568;25.814;2022-09-09T10:36:46;101932.56;;;12.07;100.00
59650;BME280;46162;57.568;25.814;2022-09-09T10:39:26;101939.19;;;12.03;100.00
59650;BME280;46162;57.568;25.814;2022-09-09T10:42:04;101936.84;;;12.10;97.24
59650;BME280;46162;57.568;25.814;2022-09-09T10:44:47;101923.16;;;12.11;100.00
59650;BME280;46162;57.568;25.814;2022-09-09T10:47:28;101935.13;;;12.30;100.00
59650;BME280;46162;57.568;25.814;2022-09-09T10:50:17;101921.59;;;12.30;100.00
59650;BME280;46162;57.568;25.814;2022-09-09T10:52:55;101937.31;;;12.15;100.00
59650;BME280;46162;57.568;25.814;2022-09-09T10:55:36;101924.75;;;12.14;97.09
59650;BME280;46162;57.568;25.814;2022-09-09T10:58:13;101928.44;;;12.34;100.00
59650;BME280;46162;57.568;25.814;2022-09-09T11:00:45;101935.50;;;12.46;99.97
59650;BME280;46162;57.568;25.814;2022-09-09T11:03:23;101926.13;;;12.50;97.79
59650;BME280;46162;57.568;25.814;2022-09-09T11:05:56;101920.34;;;12.64;86.95
59650;BME280;46162;57.568;25.814;2022-09-09T11:08:27;101918.09;;;12.48;91.60
59650;BME280;46162;57.568;25.814;2022-09-09T11:11:01;101918.44;;;12.55;100.00
59650;BME280;46162;57.568;25.814;2022-09-09T11:13:36;101916.59;;;12.56;100.00
59650;BME280;46162;57.568;25.814;2022-09-09T11:16:17;101919.75;;;12.61;100.00
59650;BME280;46162;57.568;25.814;2022-09-09T11:18:55;101920.41;;;12.53;100.00
59650;BME280;46162;57.568;25.814;2022-09-09T11:21:29;101916.13;;;12.51;100.00
59650;BME280;46162;57.568;25.814;2022-09-09T11:24:02;101922.63;;;12.38;96.88
59650;BME280;46162;57.568;25.814;2022-09-09T11:26:37;101913.63;;;12.38;93.88
59650;BME280;46162;57.568;25.814;2022-09-09T11:29:29;101915.38;;;12.39;100.00
59650;BME280;46162;57.568;25.814;2022-09-09T11:32:14;101901.16;;;12.46;92.75
59650;BME280;46162;57.568;25.814;2022-09-09T11:34:54;101909.53;;;12.43;94.50
59650;BME280;46162;57.568;25.814;2022-09-09T11:40:23;101905.91;;;12.54;89.96
59650;BME280;46162;57.568;25.814;2022-09-09T11:43:02;101903.00;;;12.46;86.32
59650;BME280;46162;57.568;25.814;2022-09-09T11:45:35;101882.66;;;12.31;100.00
59650;BME280;46162;57.568;25.814;2022-09-09T11:48:05;101894.50;;;12.30;99.49
59650;BME280;46162;57.568;25.814;2022-09-09T11:50:35;101891.03;;;12.48;95.34
59650;BME280;46162;57.568;25.814;2022-09-09T11:53:20;101890.16;;;12.48;92.75
59650;BME280;46162;57.568;25.814;2022-09-09T11:56:09;101888.34;;;12.58;86.86
59650;BME280;46162;57.568;25.814;2022-09-09T11:58:44;101877.91;;;12.44;100.00
59650;BME280;46162;57.568;25.814;2022-09-09T12:01:30;101868.28;;;12.30;99.11
59650;BME280;46162;57.568;25.814;2022-09-09T12:04:13;101874.38;;;12.22;100.00
59650;BME280;46162;57.568;25.814;2022-09-09T12:06:51;101878.31;;;12.18;100.00
59650;BME280;46162;57.568;25.814;2022-09-09T12:09:29;101874.25;;;12.34;94.30
59650;BME280;46162;57.568;25.814;2022-09-09T12:12:22;101873.19;;;12.46;100.00
59650;BME280;46162;57.568;25.814;2022-09-09T12:14:57;101865.50;;;12.51;97.59
59650;BME280;46162;57.568;25.814;2022-09-09T12:17:29;101868.28;;;12.30;100.00
59650;BME280;46162;57.568;25.814;2022-09-09T12:20:08;101860.03;;;12.32;95.62
59650;BME280;46162;57.568;25.814;2022-09-09T12:22:57;101862.81;;;12.20;100.00
59650;BME280;46162;57.568;25.814;2022-09-09T12:25:46;101861.22;;;12.18;100.00
59650;BME280;46162;57.568;25.814;2022-09-09T12:28:19;101863.81;;;12.19;100.00
59650;BME280;46162;57.568;25.814;2022-09-09T12:30:55;101860.28;;;12.29;92.25
59650;BME280;46162;57.568;25.814;2022-09-09T12:33:34;101863.59;;;12.32;96.15
59650;BME280;46162;57.568;25.814;2022-09-09T12:36:05;101858.69;;;12.26;94.92
59650;BME280;46162;57.568;25.814;2022-09-09T12:38:40;101858.84;;;12.24;98.03
59650;BME280;46162;57.568;25.814;2022-09-09T12:41:19;101863.19;;;12.16;100.00
59650;BME280;46162;57.568;25.814;2022-09-09T12:43:48;101859.56;;;12.26;91.56
59650;BME280;46162;57.568;25.814;2022-09-09T12:46:24;101851.78;;;12.12;97.42
59650;BME280;46162;57.568;25.814;2022-09-09T12:49:00;101859.97;;;12.01;100.00
59650;BME280;46162;57.568;25.814;2022-09-09T12:51:30;101849.81;;;12.14;91.66
59650;BME280;46162;57.568;25.814;2022-09-09T12:54:00;101857.72;;;12.06;100.00
59650;BME280;46162;57.568;25.814;2022-09-09T12:56:32;101858.63;;;12.16;88.49
59650;BME280;46162;57.568;25.814;2022-09-09T12:59:03;101848.13;;;12.23;90.56
59650;BME280;46162;57.568;25.814;2022-09-09T13:01:32;101852.59;;;12.03;100.00
59650;BME280;46162;57.568;25.814;2022-09-09T13:04:19;101839.72;;;11.95;99.56
59650;BME280;46162;57.568;25.814;2022-09-09T13:06:49;101833.13;;;11.88;100.00
59650;BME280;46162;57.568;25.814;2022-09-09T13:09:19;101837.53;;;12.10;100.00
59650;BME280;46162;57.568;25.814;2022-09-09T13:11:51;101831.25;;;12.10;97.90
59650;BME280;46162;57.568;25.814;2022-09-09T13:14:28;101833.81;;;12.11;100.00
59650;BME280;46162;57.568;25.814;2022-09-09T13:17:00;101827.84;;;12.08;93.27
59650;BME280;46162;57.568;25.814;2022-09-09T13:19:35;101830.53;;;12.08;94.73
59650;BME280;46162;57.568;25.814;2022-09-09T13:22:11;101838.38;;;12.11;94.67
59650;BME280;46162;57.568;25.814;2022-09-09T13:24:41;101833.38;;;12.06;93.04
59650;BME280;46162;57.568;25.814;2022-09-09T13:27:28;101825.06;;;11.98;95.71